Nyk Constellation — V7NP4 — position and weather

sailwx.info

Track history (hours):
 
Tides and Currents Weather Stations Pressure Air Temp Water Temp Dewpoint Dewpoint Depression Visibility Wind Speed Wind Dir Waves Ship Positions

Nyk Constellation

Last reported at 2017-Mar-28 18:27 UTC. Time now 2017-Mar-28 19:34 UTC.
Position N 35°05' E 128°50'.

Length 294 m; draft 10.4 m.

Type: Cargo ship. MMSI: 538002992.

Date/timePositionNaut miles runAvg speedWind from/ knotsBaromVisibWave heightAir tempDewpointWater temp
2017-Mar-28 18:27N 35°05' E 128°50'0 0.0
2017-Mar-28 15:30N 35°05' E 128°50'0 0.0
2017-Mar-28 14:30N 35°05' E 128°50'0 0.0
2017-Mar-28 13:24N 35°05' E 128°50'1 1.3
2017-Mar-28 12:29N 35°04' E 128°48'9 9.2
2017-Mar-28 11:33N 34°56' E 128°51'11 9.7
2017-Mar-28 10:22N 34°50' E 129°03'5 6.2
2017-Mar-28 09:29N 34°49' E 129°09'1 0.8
2017-Mar-28 08:33N 34°49' E 129°10'2 1.7
2017-Mar-28 07:32N 34°48' E 129°12'  
2017-Mar-25 20:18N 35°13' E 139°46'912.2
2017-Mar-25 19:33N 35°21' E 139°42'3 2.8
2017-Mar-25 18:31N 35°24' E 139°41'0 0.0
2017-Mar-25 17:31N 35°24' E 139°41'0 0.0
2017-Mar-25 16:31N 35°24' E 139°41'0 0.0
2017-Mar-25 15:31N 35°24' E 139°41'0 0.0
2017-Mar-25 14:31N 35°24' E 139°41'0 0.0
2017-Mar-25 13:31N 35°24' E 139°41'0 0.0
2017-Mar-25 12:31N 35°24' E 139°41'0 0.0
2017-Mar-25 11:31N 35°24' E 139°41'0 0.0
2017-Mar-25 10:31N 35°24' E 139°41'2 1.8
2017-Mar-25 09:33N 35°22' E 139°41'1010.3
2017-Mar-25 08:33N 35°13' E 139°47'1110.7
2017-Mar-25 07:31N 35°03' E 139°42'  
Track history (hours):
 
Tides and Currents Weather Stations Pressure Air Temp Water Temp Dewpoint Dewpoint Depression Visibility Wind Speed Wind Dir Waves Ship Positions

Nyk Constellation

Last reported at 2017-Mar-28 18:27 UTC. Time now 2017-Mar-28 19:34 UTC.
Position N 35°05' E 128°50'.

Length 294 m; draft 10.4 m.

Type: Cargo ship. MMSI: 538002992.

Date/timePositionNaut miles runAvg speedWind from/ knotsBaromVisibWave heightAir tempDewpointWater temp
2017-Mar-28 18:27N 35°05' E 128°50'0 0.0
2017-Mar-28 15:30N 35°05' E 128°50'0 0.0
2017-Mar-28 14:30N 35°05' E 128°50'0 0.0
2017-Mar-28 13:24N 35°05' E 128°50'1 1.3
2017-Mar-28 12:29N 35°04' E 128°48'9 9.2
2017-Mar-28 11:33N 34°56' E 128°51'11 9.7
2017-Mar-28 10:22N 34°50' E 129°03'5 6.2
2017-Mar-28 09:29N 34°49' E 129°09'1 0.8
2017-Mar-28 08:33N 34°49' E 129°10'2 1.7
2017-Mar-28 07:32N 34°48' E 129°12'  
2017-Mar-25 20:18N 35°13' E 139°46'912.2
2017-Mar-25 19:33N 35°21' E 139°42'3 2.8
2017-Mar-25 18:31N 35°24' E 139°41'0 0.0
2017-Mar-25 17:31N 35°24' E 139°41'0 0.0
2017-Mar-25 16:31N 35°24' E 139°41'0 0.0
2017-Mar-25 15:31N 35°24' E 139°41'0 0.0
2017-Mar-25 14:31N 35°24' E 139°41'0 0.0
2017-Mar-25 13:31N 35°24' E 139°41'0 0.0
2017-Mar-25 12:31N 35°24' E 139°41'0 0.0
2017-Mar-25 11:31N 35°24' E 139°41'0 0.0
2017-Mar-25 10:31N 35°24' E 139°41'2 1.8
2017-Mar-25 09:33N 35°22' E 139°41'1010.3
2017-Mar-25 08:33N 35°13' E 139°47'1110.7
2017-Mar-25 07:31N 35°03' E 139°42'  

Dump ship's entire track history